Time;durP1;ratioP1;P1;durP2;ratioP2;P2;SDS_P1;SDS_P2;PMS_P1;PMS_P2;Temp;Humidity;BMP_temperature;BMP_pressure;BME280_temperature;BME280_humidity;BME280_pressure;Samples;Min_cycle;Max_cycle;Signal;HPM_P1;HPM_P2
2022/09/19 00:01:24;;;;;;;24.17;22.73;;;;;;;13.96;63.44;101738.81;5018216;28;20041;-73
2022/09/19 00:03:56;;;;;;;26.52;24.92;;;;;;;13.95;63.48;101739.03;5027991;28;20112;-74
2022/09/19 00:06:23;;;;;;;24.25;22.85;;;;;;;13.94;63.38;101734.69;5012536;28;20034;-72
2022/09/19 00:08:49;;;;;;;26.00;23.92;;;;;;;13.93;63.35;101738.44;5018015;28;20394;-72
2022/09/19 00:11:18;;;;;;;24.30;22.80;;;;;;;13.92;63.40;101742.25;5043527;28;20033;-71
2022/09/19 00:13:47;;;;;;;26.02;23.98;;;;;;;13.92;63.36;101744.97;5031238;28;20080;-72
2022/09/19 00:16:41;;;;;;;26.48;23.73;;;;;;;13.91;63.21;101746.00;5030499;28;20065;-74
2022/09/19 00:19:10;;;;;;;24.15;22.17;;;;;;;13.89;63.25;101759.03;5012453;28;20030;-74
2022/09/19 00:21:40;;;;;;;23.17;21.77;;;;;;;13.89;63.17;101756.31;5026154;28;20030;-76
2022/09/19 00:26:53;;;;;;;24.45;23.05;;;;;;;13.85;63.14;101745.09;5011917;28;20053;-73
2022/09/19 00:29:18;;;;;;;23.60;22.33;;;;;;;13.85;62.99;101747.81;5012158;28;20033;-71
2022/09/19 00:31:45;;;;;;;24.77;23.30;;;;;;;13.83;63.28;101745.34;5011428;28;20065;-72
2022/09/19 00:34:12;;;;;;;23.02;21.80;;;;;;;13.82;63.14;101743.69;5011917;28;20036;-72
2022/09/19 00:36:38;;;;;;;22.85;21.58;;;;;;;13.82;63.36;101745.56;5035574;28;20092;-75
2022/09/19 00:39:05;;;;;;;23.20;21.88;;;;;;;13.81;62.93;101754.78;5029550;28;20041;-71
2022/09/19 00:41:32;;;;;;;23.52;22.23;;;;;;;13.80;63.21;101751.22;5023902;28;20108;-71
2022/09/19 00:44:03;;;;;;;23.33;21.92;;;;;;;13.79;63.20;101748.78;5027883;28;20301;-72
2022/09/19 00:46:32;;;;;;;23.70;22.30;;;;;;;13.77;62.99;101749.00;5027130;28;20038;-72
2022/09/19 00:49:05;;;;;;;22.35;21.15;;;;;;;13.76;63.07;101752.78;5017057;28;20589;-72
2022/09/19 00:51:39;;;;;;;24.55;23.15;;;;;;;13.75;63.09;101753.84;5030216;28;20029;-72
2022/09/19 00:54:11;;;;;;;22.77;21.30;;;;;;;13.74;63.00;101756.81;5033224;28;20044;-72
2022/09/19 00:56:42;;;;;;;23.42;22.15;;;;;;;13.73;63.07;101760.56;5028243;28;20037;-74
2022/09/19 00:59:09;;;;;;;24.10;22.60;;;;;;;13.73;63.20;101757.84;5031126;28;20030;-74
2022/09/19 01:01:34;;;;;;;22.63;21.40;;;;;;;13.71;62.89;101757.25;5031071;28;20112;-72
2022/09/19 01:04:01;;;;;;;24.30;22.63;;;;;;;13.70;63.03;101759.16;5029862;28;20112;-74
2022/09/19 01:07:14;;;;;;;22.92;21.42;;;;;;;13.69;62.95;101756.69;5013996;28;20034;-74
2022/09/19 01:09:48;;;;;;;22.73;21.42;;;;;;;13.67;63.05;101754.22;5013842;28;20125;-75
2022/09/19 01:12:46;;;;;;;23.20;21.30;;;;;;;13.66;63.01;101754.44;5011366;28;20062;-72
2022/09/19 01:15:23;;;;;;;21.65;20.38;;;;;;;13.63;63.11;101759.31;5021063;28;20116;-72
2022/09/19 01:17:57;;;;;;;24.05;22.33;;;;;;;13.62;63.02;101765.78;5012395;28;20025;-73
2022/09/19 01:20:40;;;;;;;23.88;22.13;;;;;;;13.61;62.72;101766.03;5023011;28;20120;-73
2022/09/19 01:23:36;;;;;;;22.33;21.10;;;;;;;13.59;62.92;101760.03;5013182;28;20148;-72
2022/09/19 01:26:25;;;;;;;23.45;22.15;;;;;;;13.58;63.01;101764.63;5009818;28;20033;-72
2022/09/19 01:28:56;;;;;;;22.27;21.08;;;;;;;13.58;62.93;101763.78;5009805;28;20116;-73
2022/09/19 01:31:29;;;;;;;22.90;21.45;;;;;;;13.56;62.84;101766.75;5011539;28;20053;-72
2022/09/19 01:34:05;;;;;;;24.13;22.83;;;;;;;13.55;62.95;101761.53;5017828;28;20033;-72
2022/09/19 01:36:37;;;;;;;22.40;21.00;;;;;;;13.54;62.78;101757.19;5010768;28;20165;-72
2022/09/19 01:39:05;;;;;;;22.92;21.63;;;;;;;13.53;62.92;101758.22;5019500;28;20131;-72
2022/09/19 01:41:31;;;;;;;22.92;21.23;;;;;;;13.52;62.74;101762.84;5011647;28;20125;-73
2022/09/19 01:44:05;;;;;;;23.98;21.85;;;;;;;13.51;62.83;101769.34;5012256;28;20490;-75
2022/09/19 01:46:47;;;;;;;21.45;20.13;;;;;;;13.50;62.69;101762.25;5022268;28;20038;-73
2022/09/19 01:49:13;;;;;;;22.80;21.27;;;;;;;13.50;62.76;101766.84;5011316;28;20030;-75
2022/09/19 01:51:47;;;;;;;23.95;21.63;;;;;;;13.49;62.86;101765.22;5011390;28;20391;-74
2022/09/19 01:54:24;;;;;;;23.00;21.42;;;;;;;13.48;62.95;101766.25;5024111;28;20060;-75
2022/09/19 01:57:01;;;;;;;23.23;21.75;;;;;;;13.47;62.83;101776.31;5016843;28;20084;-72
2022/09/19 01:59:41;;;;;;;21.83;20.48;;;;;;;13.47;62.75;101778.19;5031323;28;20033;-74
2022/09/19 02:02:15;;;;;;;23.23;21.88;;;;;;;13.45;62.70;101774.88;5033866;28;20091;-75
2022/09/19 02:04:58;;;;;;;22.60;21.38;;;;;;;13.44;62.86;101770.53;5035401;28;20030;-73
2022/09/19 02:07:54;;;;;;;21.10;19.70;;;;;;;13.42;62.57;101771.56;5018017;28;20030;-73
2022/09/19 02:10:26;;;;;;;23.15;21.63;;;;;;;13.41;62.55;101775.38;5033195;28;20041;-72
2022/09/19 02:12:55;;;;;;;25.27;23.33;;;;;;;13.40;62.72;101768.28;5032701;28;20396;-73
2022/09/19 02:15:26;;;;;;;24.88;22.95;;;;;;;13.39;62.55;101772.06;5029854;28;20084;-74
2022/09/19 02:17:58;;;;;;;22.58;20.83;;;;;;;13.39;62.44;101772.06;5014035;28;20064;-75
2022/09/19 02:20:31;;;;;;;22.55;21.25;;;;;;;13.37;62.66;101776.88;5014434;28;20038;-73
2022/09/19 02:23:02;;;;;;;23.55;22.17;;;;;;;13.36;62.59;101771.72;5025902;28;20029;-72
2022/09/19 02:25:33;;;;;;;23.23;21.75;;;;;;;13.37;62.71;101781.50;5022178;28;20037;-74
2022/09/19 02:28:07;;;;;;;24.45;22.95;;;;;;;13.35;62.68;101784.44;5013662;28;20394;-74
2022/09/19 02:30:33;;;;;;;22.73;21.10;;;;;;;13.34;62.74;101784.69;5014231;28;20054;-73
2022/09/19 02:32:59;;;;;;;23.75;22.10;;;;;;;13.33;62.61;101792.00;5018546;28;20091;-73
2022/09/19 02:35:38;;;;;;;23.52;22.00;;;;;;;13.33;62.80;101793.88;5032403;28;20033;-72
2022/09/19 02:38:31;;;;;;;24.25;22.15;;;;;;;13.32;62.52;101794.94;5032225;28;20030;-72
2022/09/19 02:41:04;;;;;;;23.90;22.58;;;;;;;13.29;62.63;101788.09;5012429;28;20121;-73
2022/09/19 02:43:39;;;;;;;21.65;20.40;;;;;;;13.28;62.58;101788.31;5016225;28;20113;-73
2022/09/19 02:46:11;;;;;;;21.95;20.38;;;;;;;13.27;62.51;101790.22;5013725;28;20030;-73
2022/09/19 02:48:52;;;;;;;21.88;20.67;;;;;;;13.27;62.40;101792.13;5014099;28;20040;-72
2022/09/19 02:51:42;;;;;;;21.27;19.85;;;;;;;13.26;62.69;101790.44;5016649;28;20033;-72
2022/09/19 02:54:14;;;;;;;21.95;20.75;;;;;;;13.24;62.61;101787.13;5018638;28;20037;-73
2022/09/19 02:56:41;;;;;;;21.75;20.33;;;;;;;13.23;62.78;101799.88;5033299;28;20091;-72
2022/09/19 02:59:13;;;;;;;23.38;21.67;;;;;;;13.23;62.41;101796.31;5032356;28;20397;-73
2022/09/19 03:01:43;;;;;;;20.90;19.80;;;;;;;13.20;62.80;101795.75;5033464;28;20029;-71
2022/09/19 03:04:15;;;;;;;24.83;23.42;;;;;;;13.21;62.52;101793.84;5023257;28;20025;-72
2022/09/19 03:06:40;;;;;;;22.45;20.90;;;;;;;13.19;62.78;101802.22;5016261;28;20034;-71
2022/09/19 03:09:07;;;;;;;22.33;20.52;;;;;;;13.19;62.53;101795.97;5020882;28;20034;-72
2022/09/19 03:11:38;;;;;;;21.63;20.52;;;;;;;13.18;62.49;101800.56;5012858;28;20032;-73
2022/09/19 03:14:05;;;;;;;23.40;21.75;;;;;;;13.17;62.49;101795.38;5044184;28;20033;-73
2022/09/19 03:16:36;;;;;;;22.60;20.75;;;;;;;13.16;62.61;101791.03;5032196;28;20072;-73
2022/09/19 03:19:07;;;;;;;23.67;22.13;;;;;;;13.15;62.37;101797.50;5031087;28;20512;-73
2022/09/19 03:21:33;;;;;;;22.63;20.95;;;;;;;13.14;62.64;101799.38;5036507;28;20029;-73
2022/09/19 03:23:59;;;;;;;22.45;20.98;;;;;;;13.13;62.59;101795.03;5012932;28;20041;-72
2022/09/19 03:26:31;;;;;;;21.67;20.33;;;;;;;13.13;62.67;101791.50;5013116;28;20151;-72
2022/09/19 03:28:58;;;;;;;21.45;20.35;;;;;;;13.12;62.60;101792.53;5028802;28;20478;-73
2022/09/19 03:31:24;;;;;;;23.50;21.52;;;;;;;13.10;62.55;101786.50;5013182;28;20057;-72
2022/09/19 03:33:51;;;;;;;20.60;19.50;;;;;;;13.09;62.33;101788.41;5012159;28;20092;-73
2022/09/19 03:36:17;;;;;;;22.55;21.20;;;;;;;13.07;62.48;101790.53;5020121;28;20393;-73
2022/09/19 03:38:45;;;;;;;22.25;20.85;;;;;;;13.08;62.32;101794.06;5045764;28;20040;-72
2022/09/19 03:41:15;;;;;;;22.55;20.80;;;;;;;13.06;62.22;101788.88;5030922;28;20034;-72
2022/09/19 03:43:45;;;;;;;22.63;21.02;;;;;;;13.06;62.60;101796.19;5031160;28;20065;-72
2022/09/19 03:46:11;;;;;;;22.42;21.02;;;;;;;13.05;62.41;101802.66;5032343;28;20488;-73
2022/09/19 03:48:44;;;;;;;22.02;20.52;;;;;;;13.04;62.33;101806.44;5028127;28;20037;-74
2022/09/19 03:51:10;;;;;;;23.60;21.98;;;;;;;13.03;62.59;101796.63;5020849;28;20044;-74
2022/09/19 03:53:36;;;;;;;22.55;20.55;;;;;;;13.02;62.44;101803.94;5040803;28;20153;-73
2022/09/19 03:56:03;;;;;;;23.83;21.85;;;;;;;13.01;62.53;101802.31;5016185;28;20401;-72
2022/09/19 03:58:30;;;;;;;22.02;20.58;;;;;;;13.00;62.36;101803.34;5017509;28;20037;-73
2022/09/19 04:00:56;;;;;;;21.52;20.42;;;;;;;13.01;62.46;101809.63;5012501;28;20121;-76
2022/09/19 04:03:23;;;;;;;22.38;21.02;;;;;;;12.98;62.30;101800.91;5020118;28;20038;-72
2022/09/19 04:05:50;;;;;;;22.00;20.45;;;;;;;12.97;62.39;101807.34;5016398;28;20426;-72
2022/09/19 04:08:15;;;;;;;24.20;22.35;;;;;;;12.97;62.44;101814.69;5021351;28;20026;-72
2022/09/19 04:10:42;;;;;;;22.95;21.25;;;;;;;12.96;62.51;101811.13;5012551;28;20045;-72
2022/09/19 04:13:09;;;;;;;24.45;22.25;;;;;;;12.96;62.42;101823.88;5031298;28;20037;-72
2022/09/19 04:15:34;;;;;;;24.08;21.80;;;;;;;12.95;62.31;101819.50;5012441;28;20040;-73
2022/09/19 04:17:59;;;;;;;22.98;21.35;;;;;;;12.94;62.40;101824.09;5010546;28;20034;-74
2022/09/19 04:20:27;;;;;;;23.65;22.15;;;;;;;12.93;62.29;101827.88;5018246;28;20029;-71
2022/09/19 04:22:52;;;;;;;23.08;21.60;;;;;;;12.92;62.26;101820.78;5040656;28;20401;-72
2022/09/19 04:25:18;;;;;;;22.15;20.95;;;;;;;12.92;62.62;101819.97;5019863;28;20034;-72
2022/09/19 04:27:44;;;;;;;21.10;19.27;;;;;;;12.92;62.49;101825.41;5012165;28;20065;-72
2022/09/19 04:30:10;;;;;;;22.67;20.95;;;;;;;12.91;62.58;101827.28;5010269;28;20042;-71
2022/09/19 04:32:36;;;;;;;20.77;19.67;;;;;;;12.91;62.21;101823.75;5041261;28;20461;-74
2022/09/19 04:35:01;;;;;;;20.92;19.77;;;;;;;12.90;62.64;101824.78;5011805;28;20037;-75
2022/09/19 04:37:29;;;;;;;20.40;19.30;;;;;;;12.90;62.64;101824.78;5020299;28;20033;-71
2022/09/19 04:39:54;;;;;;;22.63;20.83;;;;;;;12.89;62.58;101825.88;5012192;28;20033;-72
2022/09/19 04:42:20;;;;;;;20.60;19.38;;;;;;;12.88;62.63;101827.75;5018687;28;20666;-71
2022/09/19 04:44:45;;;;;;;22.20;20.50;;;;;;;12.89;62.52;101828.56;4994529;28;20113;-71
2022/09/19 04:47:10;;;;;;;22.52;20.73;;;;;;;12.88;62.57;101835.06;5010441;28;20482;-72
2022/09/19 04:49:39;;;;;;;21.38;20.00;;;;;;;12.86;62.34;101838.00;5011945;28;20034;-72
2022/09/19 04:52:09;;;;;;;22.30;20.58;;;;;;;12.87;62.41;101841.53;5036616;28;20045;-72
2022/09/19 04:54:37;;;;;;;21.75;20.45;;;;;;;12.85;62.33;101843.66;5011990;28;20061;-71
2022/09/19 04:57:05;;;;;;;21.88;20.38;;;;;;;12.84;62.46;101842.81;5011873;28;20038;-75
2022/09/19 04:59:30;;;;;;;20.33;19.17;;;;;;;12.84;62.42;101847.44;5026440;28;20088;-72
2022/09/19 05:01:57;;;;;;;21.45;19.25;;;;;;;12.83;62.56;101851.22;5057497;28;20042;-74
2022/09/19 05:04:24;;;;;;;21.85;20.20;;;;;;;12.83;62.55;101852.03;5029544;28;20061;-72
2022/09/19 05:06:51;;;;;;;21.92;20.27;;;;;;;12.82;62.64;101853.06;5013328;28;20061;-72
2022/09/19 05:09:17;;;;;;;23.40;21.35;;;;;;;12.82;62.52;101850.34;5010107;28;20060;-72
2022/09/19 05:11:46;;;;;;;20.60;19.17;;;;;;;12.81;62.16;101851.44;5026712;28;20462;-72
2022/09/19 05:14:14;;;;;;;24.35;22.60;;;;;;;12.81;62.43;101856.84;5030522;28;20038;-72
2022/09/19 05:16:41;;;;;;;20.50;19.35;;;;;;;12.80;62.45;101857.06;5030824;28;20036;-74
2022/09/19 05:19:07;;;;;;;21.40;20.02;;;;;;;12.78;62.64;101858.13;5029246;28;20402;-74
2022/09/19 05:21:33;;;;;;;21.38;19.70;;;;;;;12.77;62.40;101851.06;5031263;28;20126;-74
2022/09/19 05:24:00;;;;;;;19.13;17.92;;;;;;;12.77;62.42;101855.63;5010225;28;20092;-73
2022/09/19 05:26:26;;;;;;;21.58;20.42;;;;;;;12.76;62.42;101856.72;5010030;28;20034;-75
2022/09/19 05:28:51;;;;;;;20.88;19.55;;;;;;;12.77;62.45;101855.63;5027475;28;20102;-73
2022/09/19 05:31:18;;;;;;;23.38;21.15;;;;;;;12.75;62.49;101861.31;5038853;28;20865;-74
2022/09/19 05:33:43;;;;;;;21.35;19.95;;;;;;;12.76;62.48;101864.84;5041612;28;20037;-73
2022/09/19 05:36:09;;;;;;;23.20;21.90;;;;;;;12.75;62.35;101864.03;5032362;28;20144;-74
2022/09/19 05:38:34;;;;;;;21.08;19.70;;;;;;;12.74;62.46;101869.66;5014481;28;20037;-72
2022/09/19 05:41:01;;;;;;;19.80;18.42;;;;;;;12.73;62.57;101871.56;5026044;28;20040;-75
2022/09/19 05:43:27;;;;;;;21.30;19.90;;;;;;;12.73;62.60;101863.41;5027372;28;20533;-72
2022/09/19 05:45:55;;;;;;;21.63;20.27;;;;;;;12.73;62.42;101876.16;5036841;28;20124;-72
2022/09/19 05:48:21;;;;;;;21.92;20.65;;;;;;;12.72;62.75;101875.31;5034813;28;20488;-73
2022/09/19 05:50:48;;;;;;;22.05;20.25;;;;;;;12.72;62.45;101871.78;5037717;28;20067;-73
2022/09/19 05:55:59;;;;;;;21.85;20.38;;;;;;;12.71;62.43;101872.84;5023639;28;20048;-77
2022/09/19 05:58:25;;;;;;;21.30;19.63;;;;;;;12.70;62.51;101869.31;5030069;28;20042;-74
2022/09/19 06:00:51;;;;;;;23.65;22.10;;;;;;;12.71;62.51;101879.09;5014966;28;20454;-74
2022/09/19 06:03:20;;;;;;;23.00;21.20;;;;;;;12.71;62.55;101875.53;5018698;28;20034;-73
2022/09/19 06:05:48;;;;;;;21.30;20.10;;;;;;;12.71;62.51;101883.69;5014585;28;20034;-74
2022/09/19 06:08:15;;;;;;;24.75;23.05;;;;;;;12.71;62.59;101883.69;5014215;28;20466;-73
2022/09/19 06:10:42;;;;;;;20.08;18.98;;;;;;;12.70;62.61;101885.56;5021747;28;20084;-74
2022/09/19 06:13:13;;;;;;;21.05;19.70;;;;;;;12.70;62.50;101879.28;5033993;28;20042;-75
2022/09/19 06:15:38;;;;;;;22.20;20.67;;;;;;;12.71;62.63;101889.09;5033573;28;20481;-74
2022/09/19 06:18:04;;;;;;;20.48;19.30;;;;;;;12.70;62.34;101888.28;5032227;28;20115;-74
2022/09/19 06:20:29;;;;;;;20.65;19.10;;;;;;;12.71;62.47;101892.63;5034559;28;20025;-72
2022/09/19 06:23:01;;;;;;;23.25;21.30;;;;;;;12.71;62.48;101894.53;5016050;28;20030;-73
2022/09/19 06:25:31;;;;;;;23.30;21.90;;;;;;;12.71;62.54;101894.53;5028495;28;20109;-74
2022/09/19 06:27:59;;;;;;;20.88;19.70;;;;;;;12.70;62.45;101899.13;5012480;28;20034;-75
2022/09/19 06:30:26;;;;;;;23.08;21.13;;;;;;;12.71;62.50;101899.94;5029429;28;20191;-73
2022/09/19 06:32:52;;;;;;;19.63;18.23;;;;;;;12.71;62.50;101908.09;5035494;28;20039;-72
2022/09/19 06:35:18;;;;;;;22.20;20.60;;;;;;;12.71;62.54;101902.66;5031016;28;20504;-74
2022/09/19 06:37:44;;;;;;;22.35;20.27;;;;;;;12.70;62.49;101909.97;5023579;28;20417;-75
2022/09/19 06:40:10;;;;;;;22.95;21.02;;;;;;;12.71;62.42;101908.09;5030061;28;20029;-77
2022/09/19 06:42:36;;;;;;;22.30;20.75;;;;;;;12.71;62.65;101917.03;5027790;28;20555;-74
2022/09/19 06:45:01;;;;;;;22.42;21.23;;;;;;;12.72;62.39;101917.84;5028791;28;20061;-74
2022/09/19 06:47:27;;;;;;;23.08;21.05;;;;;;;12.71;62.58;101922.47;5031156;28;20030;-74
2022/09/19 06:49:52;;;;;;;21.98;20.67;;;;;;;12.72;62.66;101920.56;5028922;28;20049;-73
2022/09/19 06:52:18;;;;;;;28.58;23.50;;;;;;;12.73;62.43;101924.94;5029504;28;20086;-73
2022/09/19 06:54:43;;;;;;;20.65;19.55;;;;;;;12.72;62.50;101920.56;5034002;28;20664;-73
2022/09/19 06:57:11;;;;;;;22.10;20.42;;;;;;;12.72;62.47;101926.81;5029475;28;20465;-72
2022/09/19 06:59:36;;;;;;;22.02;20.55;;;;;;;12.73;62.49;101930.38;5029396;28;20421;-72
2022/09/19 07:02:02;;;;;;;24.63;22.08;;;;;;;12.73;62.64;101931.19;5030186;28;20041;-73
2022/09/19 07:04:27;;;;;;;22.70;21.30;;;;;;;12.73;62.97;101930.38;5029170;28;20029;-72
2022/09/19 07:06:54;;;;;;;21.48;19.58;;;;;;;12.73;62.74;101933.09;5029264;28;20124;-74
2022/09/19 07:09:19;;;;;;;22.60;20.90;;;;;;;12.73;62.60;101935.81;5027573;28;20033;-73
2022/09/19 07:11:45;;;;;;;21.85;20.05;;;;;;;12.73;62.56;101933.09;5023926;28;20052;-75
2022/09/19 07:14:11;;;;;;;23.67;21.23;;;;;;;12.74;62.72;101932.03;5028845;28;20068;-72
2022/09/19 07:16:36;;;;;;;21.73;20.48;;;;;;;12.74;62.67;101940.16;5023949;28;20029;-73
2022/09/19 07:19:02;;;;;;;23.48;21.02;;;;;;;12.74;62.41;101942.88;5025698;28;20030;-73
2022/09/19 07:21:27;;;;;;;21.92;20.25;;;;;;;12.74;62.65;101946.41;5026234;28;20059;-72
2022/09/19 07:23:54;;;;;;;21.55;19.95;;;;;;;12.74;62.62;101949.09;5030629;28;20040;-74
2022/09/19 07:26:21;;;;;;;23.63;21.42;;;;;;;12.75;62.66;101952.63;5027770;28;20041;-74
2022/09/19 07:28:46;;;;;;;21.15;19.75;;;;;;;12.76;62.81;101951.59;5027265;28;20191;-73
2022/09/19 07:31:12;;;;;;;21.65;19.52;;;;;;;12.74;62.94;101946.41;5027997;28;20392;-73
2022/09/19 07:33:37;;;;;;;21.73;20.30;;;;;;;12.74;62.82;101965.38;5027405;28;20350;-74
2022/09/19 07:36:06;;;;;;;22.77;21.40;;;;;;;12.75;63.08;101960.78;5027067;28;20029;-72
2022/09/19 07:38:33;;;;;;;23.25;20.90;;;;;;;12.75;63.06;101958.06;5025172;28;20041;-74
2022/09/19 07:41:02;;;;;;;21.15;19.60;;;;;;;12.74;63.00;101959.94;5028197;28;20548;-71
2022/09/19 07:43:27;;;;;;;22.33;20.63;;;;;;;12.75;63.16;101956.19;5028090;28;20029;-73
2022/09/19 07:45:53;;;;;;;21.00;19.42;;;;;;;12.75;62.92;101955.34;5026775;28;20397;-72
2022/09/19 07:48:19;;;;;;;22.02;20.70;;;;;;;12.75;63.39;101956.19;5028243;28;20128;-73
2022/09/19 07:50:47;;;;;;;21.00;19.55;;;;;;;12.76;63.34;101965.16;5010888;28;20041;-74
2022/09/19 07:53:23;;;;;;;20.92;19.10;;;;;;;12.75;63.36;101958.91;5026297;28;20033;-75
2022/09/19 07:55:54;;;;;;;22.25;20.20;;;;;;;12.76;63.39;101963.28;5027410;28;20037;-72
2022/09/19 07:58:22;;;;;;;21.80;20.35;;;;;;;12.74;63.62;101962.66;5024239;28;20029;-73
2022/09/19 08:00:49;;;;;;;21.60;20.38;;;;;;;12.75;63.56;101967.03;5029483;28;20029;-73
2022/09/19 08:03:16;;;;;;;21.42;20.15;;;;;;;12.75;63.40;101967.03;5026286;28;20040;-80
2022/09/19 08:05:44;;;;;;;22.55;20.77;;;;;;;12.76;63.39;101968.69;5022560;28;20152;-72
2022/09/19 08:08:11;;;;;;;20.30;18.83;;;;;;;12.78;63.49;101968.47;5029105;28;20029;-75
2022/09/19 08:10:41;;;;;;;23.08;20.95;;;;;;;12.80;63.83;101979.06;5025439;28;20040;-72
2022/09/19 08:13:08;;;;;;;22.92;21.45;;;;;;;12.81;63.73;101975.31;5024573;28;20034;-73
2022/09/19 08:15:35;;;;;;;22.23;20.90;;;;;;;12.81;63.89;101976.16;5025040;28;20025;-73
2022/09/19 08:18:04;;;;;;;21.50;20.30;;;;;;;12.82;63.81;101979.69;5028586;28;20386;-75
2022/09/19 08:20:32;;;;;;;23.85;22.23;;;;;;;12.84;63.92;101988.44;5022449;28;20079;-76
2022/09/19 08:23:03;;;;;;;22.00;20.38;;;;;;;12.84;64.01;101985.72;5023955;28;20041;-73
2022/09/19 08:25:32;;;;;;;22.20;20.45;;;;;;;12.84;63.88;101988.44;5021137;28;20507;-75
2022/09/19 08:27:57;;;;;;;;;;;;;;;12.85;63.97;101988.22;5024818;28;20037;-77
2022/09/19 08:30:24;;;;;;;23.33;21.15;;;;;;;12.85;63.84;101993.63;5027734;28;19920;-73
2022/09/19 08:32:50;;;;;;;21.92;19.73;;;;;;;12.87;64.00;101996.91;5026140;28;20060;-74
2022/09/19 08:35:20;;;;;;;20.52;19.45;;;;;;;12.89;64.04;101999.41;5020063;28;20033;-76
2022/09/19 08:37:46;;;;;;;21.90;20.50;;;;;;;12.90;63.93;102001.91;5026447;28;20033;-74
2022/09/19 08:40:43;;;;;;;23.10;21.48;;;;;;;12.91;64.02;101998.13;5022940;28;20025;-73
2022/09/19 08:43:34;;;;;;;20.23;19.05;;;;;;;12.93;64.08;102000.63;5007314;28;20060;-73
2022/09/19 08:46:27;;;;;;;21.33;20.02;;;;;;;12.95;64.19;102015.63;5028036;28;20055;-73
2022/09/19 08:48:58;;;;;;;20.92;19.80;;;;;;;12.96;63.93;102017.25;5024967;28;20040;-73
2022/09/19 08:51:46;;;;;;;22.80;21.40;;;;;;;12.99;64.14;102021.41;5022506;28;20039;-74
2022/09/19 08:54:17;;;;;;;23.23;21.95;;;;;;;13.00;63.98;102017.63;5025840;28;20033;-72
2022/09/19 08:56:43;;;;;;;21.25;20.02;;;;;;;13.03;64.16;102014.47;5026738;28;20041;-72
2022/09/19 08:59:23;;;;;;;23.25;21.95;;;;;;;13.05;64.44;102016.94;5025141;28;20033;-74
2022/09/19 09:01:53;;;;;;;21.33;20.13;;;;;;;13.07;64.44;102014.84;5022400;28;20493;-71
2022/09/19 09:04:24;;;;;;;22.38;20.67;;;;;;;13.10;64.41;102017.09;5028532;28;20116;-72
2022/09/19 09:07:10;;;;;;;22.50;20.92;;;;;;;13.13;64.67;102016.66;5025053;28;20045;-75
2022/09/19 09:09:57;;;;;;;23.00;21.50;;;;;;;13.14;64.29;102019.13;5023340;28;20244;-73
2022/09/19 09:12:35;;;;;;;24.77;23.23;;;;;;;13.18;64.76;102019.50;5027116;28;20096;-75
2022/09/19 09:15:18;;;;;;;21.88;20.02;;;;;;;13.21;64.61;102016.34;5033533;28;20041;-75
2022/09/19 09:18:09;;;;;;;24.13;22.48;;;;;;;13.25;64.78;102016.69;5028143;28;20029;-73
2022/09/19 09:20:45;;;;;;;25.77;23.73;;;;;;;13.27;64.84;102006.47;5023882;28;20397;-73
2022/09/19 09:23:18;;;;;;;22.95;21.67;;;;;;;13.30;64.80;102011.44;5033565;28;20083;-73
2022/09/19 09:25:48;;;;;;;24.33;22.80;;;;;;;13.33;64.64;102014.53;5026843;28;20099;-73
2022/09/19 09:28:41;;;;;;;20.83;19.52;;;;;;;13.37;64.70;102017.59;5031305;28;20038;-74
2022/09/19 09:31:29;;;;;;;22.70;21.30;;;;;;;13.41;64.58;102010.66;5028400;28;20053;-73
2022/09/19 09:34:22;;;;;;;20.90;19.70;;;;;;;13.46;64.62;102009.97;5031876;28;20061;-72
2022/09/19 09:37:04;;;;;;;25.98;23.92;;;;;;;13.50;64.66;102011.16;5029307;28;20033;-75
2022/09/19 09:40:01;;;;;;;23.65;21.88;;;;;;;13.55;64.57;102014.00;5032881;28;20057;-71
2022/09/19 09:42:42;;;;;;;23.92;22.08;;;;;;;13.60;64.37;102006.81;5031122;28;20044;-73
2022/09/19 09:45:34;;;;;;;21.65;20.55;;;;;;;13.67;64.58;102005.91;5031040;28;20057;-74
2022/09/19 09:48:24;;;;;;;24.13;22.55;;;;;;;13.73;64.38;102013.94;5032353;28;20152;-74
2022/09/19 09:51:03;;;;;;;22.98;21.73;;;;;;;13.77;64.21;102011.59;5032932;28;20026;-74
2022/09/19 09:53:33;;;;;;;24.63;22.52;;;;;;;13.82;64.47;102014.44;5031357;28;20390;-73
2022/09/19 09:56:28;;;;;;;22.13;20.70;;;;;;;13.87;64.94;102008.31;5029658;28;20396;-74
2022/09/19 09:59:07;;;;;;;22.98;21.77;;;;;;;13.91;64.57;102023.06;5046244;28;20409;-73
2022/09/19 10:05:05;;;;;;;23.25;21.60;;;;;;;13.99;64.57;102023.56;5026711;28;20573;-73
2022/09/19 10:07:48;;;;;;;22.73;21.52;;;;;;;14.02;64.34;102033.94;5031480;28;20041;-73
2022/09/19 10:10:18;;;;;;;24.05;22.50;;;;;;;14.07;64.58;102034.06;5031263;28;20444;-74
2022/09/19 10:13:02;;;;;;;23.70;22.02;;;;;;;14.12;64.30;102027.94;5027146;28;20034;-75
2022/09/19 10:15:31;;;;;;;23.35;21.58;;;;;;;14.16;64.40;102025.56;5029362;28;20065;-73
2022/09/19 10:18:06;;;;;;;23.67;22.20;;;;;;;14.18;64.49;102021.56;5028202;28;20033;-73
2022/09/19 10:20:45;;;;;;;26.40;24.80;;;;;;;14.22;64.25;102021.94;5034899;28;20055;-73
2022/09/19 10:23:18;;;;;;;22.40;20.95;;;;;;;14.26;64.46;102026.66;5030154;28;20033;-78
2022/09/19 10:25:46;;;;;;;24.70;23.25;;;;;;;14.31;64.24;102030.53;5029358;28;20063;-72
2022/09/19 10:28:37;;;;;;;24.80;23.50;;;;;;;14.34;64.44;102024.63;5029230;28;20107;-74
2022/09/19 10:31:04;;;;;;;24.83;23.10;;;;;;;14.38;64.06;102028.53;5033552;28;20144;-73
2022/09/19 10:33:38;;;;;;;23.98;22.55;;;;;;;14.41;64.22;102022.63;5022688;28;20040;-74
2022/09/19 10:36:15;;;;;;;23.75;22.17;;;;;;;14.46;63.86;102028.16;5030387;28;20041;-74
2022/09/19 10:38:49;;;;;;;26.05;24.50;;;;;;;14.50;63.90;102022.03;5029176;28;20026;-76
2022/09/19 10:41:18;;;;;;;23.90;22.55;;;;;;;14.54;63.76;102024.28;5034554;28;20056;-73
2022/09/19 10:43:56;;;;;;;26.00;24.45;;;;;;;14.59;63.82;102027.97;5027081;28;20120;-74
2022/09/19 10:46:26;;;;;;;27.97;25.63;;;;;;;14.63;63.43;102022.88;5030953;28;20025;-75
2022/09/19 10:48:56;;;;;;;25.08;23.60;;;;;;;14.66;63.49;102025.94;5029150;28;20032;-73
2022/09/19 10:51:27;;;;;;;23.88;22.67;;;;;;;14.70;63.70;102021.69;5035779;28;20024;-74
2022/09/19 10:53:55;;;;;;;25.33;24.02;;;;;;;14.75;63.43;102022.88;5029232;28;20065;-75
2022/09/19 10:56:27;;;;;;;25.42;23.90;;;;;;;14.78;63.53;102023.22;5027692;28;20033;-75
2022/09/19 10:59:03;;;;;;;25.25;23.70;;;;;;;14.81;63.40;102017.28;5029438;28;20048;-75
2022/09/19 11:01:29;;;;;;;26.27;24.77;;;;;;;14.83;62.92;102020.59;5031065;28;20033;-75
2022/09/19 11:04:00;;;;;;;25.50;23.83;;;;;;;14.87;63.27;102012.78;5029882;28;20048;-75
2022/09/19 11:06:27;;;;;;;24.40;23.20;;;;;;;14.91;62.99;102019.38;5029442;28;20075;-76
2022/09/19 11:08:54;;;;;;;27.58;25.60;;;;;;;14.95;63.06;102023.28;5030668;28;20039;-74
2022/09/19 11:11:21;;;;;;;27.08;25.30;;;;;;;14.97;62.75;101999.41;5027515;28;20049;-75
2022/09/19 11:14:26;;;;;;;28.70;27.05;;;;;;;15.03;62.69;102000.31;5027840;28;20029;-76
2022/09/19 11:17:13;;;;;;;27.98;26.13;;;;;;;15.05;62.61;102004.47;5028284;28;20021;-75
2022/09/19 11:20:16;;;;;;;26.13;24.63;;;;;;;15.08;62.55;102008.59;5027609;28;20099;-75
2022/09/19 11:23:05;;;;;;;27.77;26.17;;;;;;;15.11;62.69;102000.75;5040997;28;20057;-74
2022/09/19 11:26:00;;;;;;;25.00;23.73;;;;;;;15.15;62.25;102003.84;5025536;28;20026;-74
2022/09/19 11:28:55;;;;;;;25.98;24.38;;;;;;;15.17;62.40;102006.28;5029112;28;20029;-75
2022/09/19 11:31:44;;;;;;;27.65;26.05;;;;;;;15.22;62.01;102009.13;5029040;28;20099;-74
2022/09/19 11:34:11;;;;;;;27.42;25.50;;;;;;;15.24;62.22;102010.53;5034805;28;20124;-74
2022/09/19 11:37:04;;;;;;;26.83;25.33;;;;;;;15.28;62.29;102019.03;5029504;28;20034;-74
2022/09/19 11:39:51;;;;;;;26.85;25.48;;;;;;;15.30;62.02;102008.75;5029682;28;20034;-74